createdAt,value
2023-05-05T00:03:50.946Z,94365.38
2023-05-05T00:08:53.274Z,94366.53
2023-05-05T00:13:55.214Z,94355.91
2023-05-05T00:18:57.585Z,94360.16
2023-05-05T00:24:00.206Z,94334.59
2023-05-05T00:29:02.070Z,94349.31
2023-05-05T00:34:04.152Z,94359.22
2023-05-05T00:39:06.412Z,94354.44
2023-05-05T00:44:10.354Z,94349.00
2023-05-05T00:49:12.438Z,94337.69
2023-05-05T00:54:14.539Z,94327.06
2023-05-05T00:59:16.549Z,94329.03
2023-05-05T01:04:18.933Z,94331.47
2023-05-05T01:09:39.627Z,94337.56
2023-05-05T01:14:45.246Z,94338.72
2023-05-05T01:19:50.832Z,94330.31
2023-05-05T01:25:04.755Z,94327.69
2023-05-05T01:30:34.273Z,94331.81
2023-05-05T01:35:41.825Z,94325.16
2023-05-05T01:41:07.933Z,94323.91
2023-05-05T01:46:10.590Z,94315.81
2023-05-05T01:51:13.427Z,94291.38
2023-05-05T01:56:16.112Z,94292.72
2023-05-05T02:01:19.541Z,94283.78
2023-05-05T02:06:23.229Z,94314.19
2023-05-05T02:11:27.069Z,94307.56
2023-05-05T02:16:31.346Z,94320.88
2023-05-05T02:21:34.616Z,94329.50
2023-05-05T02:26:39.670Z,94316.63
2023-05-05T02:31:51.247Z,94310.22
2023-05-05T02:37:03.817Z,94314.31
2023-05-05T02:42:11.295Z,94327.00
2023-05-05T02:47:13.606Z,94317.50
2023-05-05T02:52:16.092Z,94311.91
2023-05-05T02:57:51.664Z,94321.56
2023-05-05T03:02:58.198Z,94311.75
2023-05-05T03:08:32.692Z,94314.16
2023-05-05T03:13:36.327Z,94331.38
2023-05-05T03:18:41.418Z,94328.06
2023-05-05T03:23:43.751Z,94327.28
2023-05-05T03:28:53.510Z,94329.09
2023-05-05T03:34:03.273Z,94337.34
2023-05-05T03:39:11.167Z,94330.94
2023-05-05T03:44:13.757Z,94343.59
2023-05-05T03:49:16.469Z,94336.13
2023-05-05T03:54:21.959Z,94331.00
2023-05-05T03:59:24.068Z,94334.03
2023-05-05T04:04:28.588Z,94334.16
2023-05-05T04:09:31.893Z,94341.81
2023-05-05T04:14:40.630Z,94335.16
2023-05-05T04:19:43.627Z,94348.34
2023-05-05T04:24:45.741Z,94348.59
2023-05-05T04:29:47.888Z,94352.28
2023-05-05T04:34:49.965Z,94347.28
2023-05-05T04:39:52.864Z,94339.66
2023-05-05T04:44:55.518Z,94352.75
2023-05-05T04:49:58.264Z,94353.19
2023-05-05T04:55:01.400Z,94337.59
2023-05-05T05:00:07.304Z,94353.56
2023-05-05T05:05:10.001Z,94362.25
2023-05-05T05:10:12.927Z,94370.28
2023-05-05T05:15:14.936Z,94384.00
2023-05-05T05:20:17.129Z,94382.22
2023-05-05T05:25:19.329Z,94378.88
2023-05-05T05:30:23.249Z,94374.97
2023-05-05T05:35:25.635Z,94388.16
2023-05-05T05:40:28.191Z,94378.56
2023-05-05T05:45:30.904Z,94402.78
2023-05-05T05:50:32.992Z,94410.59
2023-05-05T05:55:35.540Z,94423.34
2023-05-05T06:00:37.812Z,94423.22
2023-05-05T06:05:45.609Z,94433.47
2023-05-05T06:10:48.741Z,94438.28
2023-05-05T06:15:53.970Z,94435.59
2023-05-05T06:20:56.443Z,94451.44
2023-05-05T06:26:02.175Z,94448.78
2023-05-05T06:31:04.183Z,94439.41
2023-05-05T06:36:06.597Z,94456.28
2023-05-05T06:41:08.866Z,94452.47
2023-05-05T06:46:11.529Z,94463.09
2023-05-05T06:51:17.690Z,94449.00
2023-05-05T06:56:19.851Z,94459.75
2023-05-05T07:01:23.632Z,94457.28
2023-05-05T07:06:25.820Z,94452.31
2023-05-05T07:11:27.902Z,94461.63
2023-05-05T07:16:29.951Z,94463.50
2023-05-05T07:21:35.767Z,94449.16
2023-05-05T07:26:39.108Z,94453.09
2023-05-05T07:31:41.967Z,94461.06
2023-05-05T07:36:44.602Z,94455.88
2023-05-05T07:41:46.575Z,94457.09
2023-05-05T07:46:50.088Z,94455.13
2023-05-05T07:51:52.056Z,94456.38
2023-05-05T07:56:54.292Z,94452.72
2023-05-05T08:01:56.413Z,94440.41
2023-05-05T08:06:58.526Z,94445.97
2023-05-05T08:12:02.474Z,94452.41
2023-05-05T08:17:04.454Z,94439.28
2023-05-05T08:22:06.773Z,94445.69
2023-05-05T08:27:08.763Z,94451.63
2023-05-05T08:32:11.026Z,94441.78
2023-05-05T08:37:13.120Z,94432.00
2023-05-05T08:42:25.472Z,94431.25
2023-05-05T08:47:36.199Z,94418.97
2023-05-05T08:52:40.748Z,94422.13
2023-05-05T08:57:53.336Z,94416.97
2023-05-05T09:02:59.960Z,94418.09
2023-05-05T09:08:02.695Z,94418.81
2023-05-05T09:13:07.162Z,94402.47
2023-05-05T09:18:09.748Z,94401.38
2023-05-05T09:23:13.880Z,94398.16
2023-05-05T09:28:18.845Z,94387.84
2023-05-05T09:33:31.368Z,94407.00
2023-05-05T09:38:35.805Z,94390.25
2023-05-05T09:43:52.996Z,94394.44
2023-05-05T09:48:55.133Z,94377.03
2023-05-05T09:53:57.915Z,94393.09
2023-05-05T09:59:08.810Z,94399.00
2023-05-05T10:04:27.187Z,94393.41
2023-05-05T10:09:29.742Z,94396.81
2023-05-05T10:14:32.253Z,94378.44
2023-05-05T10:19:35.484Z,94378.91
2023-05-05T10:24:43.642Z,94364.09
2023-05-05T10:29:51.269Z,94363.72
2023-05-05T10:42:21.701Z,94365.88
2023-05-05T10:47:26.003Z,94357.84
2023-05-05T11:44:49.732Z,94296.16
2023-05-05T11:49:51.739Z,94308.19
2023-05-05T11:54:54.451Z,94304.72
2023-05-05T12:00:08.508Z,94288.00
2023-05-05T12:05:11.214Z,94283.34
2023-05-05T12:10:13.126Z,94285.25
2023-05-05T12:15:15.178Z,94278.97
2023-05-05T12:20:17.104Z,94269.09
2023-05-05T12:25:19.096Z,94259.97
2023-05-05T12:30:22.071Z,94261.69
2023-05-05T12:35:24.443Z,94257.34
2023-05-05T12:40:49.355Z,94253.13
2023-05-05T12:46:05.880Z,94240.00
2023-05-05T12:51:20.123Z,94227.03
2023-05-05T12:56:42.024Z,94222.69
2023-05-05T13:02:04.492Z,94208.47
2023-05-05T13:07:12.070Z,94206.22
2023-05-05T13:12:15.069Z,94196.41
2023-05-05T13:17:17.554Z,94197.13
2023-05-05T13:22:19.538Z,94189.38
2023-05-05T13:27:21.585Z,94189.47
2023-05-05T13:32:26.157Z,94174.41
2023-05-05T13:37:28.063Z,94169.06
2023-05-05T13:42:30.074Z,94172.72
2023-05-05T13:47:32.291Z,94167.97
2023-05-05T13:52:34.551Z,94170.13
2023-05-05T13:57:36.832Z,94155.75
2023-05-05T14:02:38.956Z,94154.91
2023-05-05T14:07:42.555Z,94133.38
2023-05-05T14:12:44.619Z,94138.63
2023-05-05T14:17:46.949Z,94126.44
2023-05-05T14:22:49.447Z,94112.38
2023-05-05T14:27:51.789Z,94122.66
2023-05-05T14:32:53.935Z,94114.94
2023-05-05T14:37:56.095Z,94093.84
2023-05-05T14:42:58.181Z,94108.72
2023-05-05T14:48:00.481Z,94081.88
2023-05-05T14:53:02.393Z,94083.13
2023-05-05T14:58:05.638Z,94079.03
2023-05-05T15:08:09.654Z,94058.97
2023-05-05T15:13:12.387Z,94036.72
2023-05-05T15:18:14.524Z,94056.25
2023-05-05T15:23:16.670Z,94041.03
2023-05-05T15:28:18.849Z,94034.63
2023-05-05T15:33:21.407Z,94042.88
2023-05-05T15:38:23.387Z,94041.41
2023-05-05T15:43:25.828Z,94035.19
2023-05-05T15:48:28.486Z,94035.03
2023-05-05T15:53:30.669Z,94026.84
2023-05-05T15:58:32.608Z,94031.03
2023-05-05T16:03:34.487Z,94024.59
2023-05-05T16:08:36.931Z,94030.75
2023-05-05T16:13:39.338Z,94019.97
2023-05-05T16:18:41.471Z,94023.47
2023-05-05T16:28:45.776Z,94022.50
2023-05-05T16:33:47.780Z,94022.72
2023-05-05T16:38:49.983Z,93997.81
2023-05-05T16:43:52.435Z,94007.19
2023-05-05T16:48:54.820Z,94010.19
2023-05-05T16:53:56.911Z,94004.56
2023-05-05T16:58:59.050Z,93996.19
2023-05-05T17:04:02.545Z,93993.09
2023-05-05T17:09:06.655Z,93988.75
2023-05-05T17:14:08.677Z,93985.81
2023-05-05T17:19:10.950Z,93975.88
2023-05-05T17:24:13.037Z,93976.72
2023-05-05T17:29:19.862Z,93976.91
2023-05-05T17:34:22.203Z,93963.19
2023-05-05T17:39:24.135Z,93953.28
2023-05-05T17:44:26.815Z,93953.94
2023-05-05T17:49:28.928Z,93960.31
2023-05-05T17:54:30.871Z,93953.56
2023-05-05T17:59:32.785Z,93949.84
2023-05-05T18:04:37.044Z,93935.72
2023-05-05T18:09:41.017Z,93945.50
2023-05-05T18:14:42.909Z,93958.13
2023-05-05T18:19:47.305Z,93941.19
2023-05-05T18:24:51.001Z,93940.53
2023-05-05T18:29:53.019Z,93960.13
2023-05-05T18:34:57.694Z,93957.25
2023-05-05T18:39:59.554Z,93957.06
2023-05-05T18:45:01.793Z,93965.69
2023-05-05T18:50:04.080Z,93962.44
2023-05-05T18:55:06.216Z,93950.69
2023-05-05T19:00:09.406Z,93960.78
2023-05-05T19:05:11.706Z,93959.75
2023-05-05T19:10:13.814Z,93961.09
2023-05-05T19:15:15.785Z,93961.69
2023-05-05T19:20:17.805Z,93970.34
2023-05-05T19:25:19.853Z,93964.25
2023-05-05T19:30:22.191Z,93968.28
2023-05-05T19:35:24.756Z,93966.41
2023-05-05T19:40:26.947Z,93962.28
2023-05-05T19:45:28.933Z,93971.66
2023-05-05T19:50:32.166Z,93976.47
2023-05-05T19:55:34.119Z,93974.22
2023-05-05T20:00:36.336Z,93999.38
2023-05-05T20:05:38.409Z,94007.59
2023-05-05T20:10:40.567Z,93994.06
2023-05-05T20:15:54.113Z,94002.22
2023-05-05T20:20:56.467Z,93997.22
2023-05-05T20:25:58.430Z,94003.84
2023-05-05T20:31:03.327Z,94017.44
2023-05-05T20:36:09.216Z,94017.88
2023-05-05T20:41:11.865Z,94022.94
2023-05-05T20:46:13.996Z,94014.06
2023-05-05T20:51:17.360Z,94022.94
2023-05-05T20:56:19.533Z,94019.09
2023-05-05T21:01:21.605Z,94012.53
2023-05-05T21:06:24.624Z,94013.69
2023-05-05T21:11:26.674Z,94008.66
2023-05-05T21:16:28.643Z,94013.28
2023-05-05T21:21:32.026Z,94011.38
2023-05-05T21:26:34.145Z,94013.31
2023-05-05T21:31:36.529Z,94016.81
2023-05-05T21:36:38.746Z,93997.44
2023-05-05T21:41:40.829Z,93997.84
2023-05-05T21:46:43.049Z,94013.31
2023-05-05T21:51:46.036Z,94002.47
2023-05-05T21:56:48.098Z,94001.72
2023-05-05T22:01:51.277Z,94002.84
2023-05-05T22:06:53.435Z,93998.56
2023-05-05T22:11:55.504Z,94014.34
2023-05-05T22:16:57.598Z,94008.53
2023-05-05T22:21:59.674Z,94001.94
2023-05-05T22:27:01.998Z,93999.56
2023-05-05T22:32:04.068Z,94006.41
2023-05-05T22:37:06.185Z,93997.41
2023-05-05T22:42:08.309Z,94006.72
2023-05-05T22:47:10.896Z,94014.03
2023-05-05T22:52:14.150Z,94003.16
2023-05-05T22:57:16.659Z,94012.81
2023-05-05T23:02:18.812Z,94005.84
2023-05-05T23:07:22.235Z,94000.75
2023-05-05T23:12:24.811Z,93992.50
2023-05-05T23:17:29.297Z,94004.94
2023-05-05T23:22:31.775Z,93998.19
2023-05-05T23:27:34.162Z,94004.28
2023-05-05T23:32:36.809Z,93996.91
2023-05-05T23:37:38.771Z,93993.00
2023-05-05T23:42:40.732Z,94002.53
2023-05-05T23:47:42.763Z,93998.56
2023-05-05T23:52:45.279Z,93987.28
2023-05-05T23:57:47.316Z,93989.13
